Culdrose, United Kingdom

9:53 AM BST on September 19, 2014 (GMT +0100)
Porthleven, Cornwall | Change Station
CLOSE
Current Station
Personal Weather Station
Location: Porthleven, ENGLAND
Elevation: 30 ft
Nearby Weather Stations

Elev 30 ft 50.09 °N, 5.32 °W | Updated 9 seconds ago

Fog
Fog
63.9 °F
Feels Like 63.9 °F
N
1.0
Wind Variable Wind from NNW
Gusts 6.0 mph

Today
High -- | Low -- °F
--% Chance of Precip.
Yesterday
High -- | Low -- °F
Precip. -- in
7:02 AM 7:26 PM
Waning Crescent, 20% visible
Pressure 29.80 in
Visibility 0.1 miles
Clouds
Dew Point 63 °F
Humidity 96%
Rainfall 0.00 in
Snow Depth Not available.
UV Not available.
Pollen Not available.
Air Quality Not available.
Flu Activity Not available.
METAR EGHE 190820Z 10006KT 0100 FG VV/// 17/17 Q1009

More Conditions Fewer Conditions

Pressure 29.80 in
Visibility 0.1 miles
Clouds
Dew Point 63 °F
Humidity 96%
Rainfall 0.00 in
Snow Depth Not available.
UV Not available.
Pollen Not available.
Air Quality Not available.
Flu Activity Not available.
METAR EGHE 190820Z 10006KT 0100 FG VV/// 17/17 Q1009

More Conditions Fewer Conditions

10-Day Weather Forecast

Almanac

Astronomy

Sep. 19, 2014 Rise Set
Actual Time 7:02 AM BST 7:26 PM BST
Civil Twilight 6:30 AM BST 7:58 PM BST
Nautical Twilight 5:51 AM BST 8:36 PM BST
Astronomical Twilight 5:11 AM BST 9:16 PM BST
Moon 2:14 AM BST 5:04 PM BST
Length of Visible Light 13h 28m
Length of Day
12h 23m
Tomorrow will be 3m 42s shorter.
Waning Crescent, 20% of the Moon is Illuminated
Today
Waning Crescent
Sep 24
New
Oct 1
First Quarter
Oct 8
Full
Oct 15
Last Quarter

Yesterday's Extremes

Country Highs Country Lows

Community

WunderPhotos

Upload Photos

1,754,581 photos uploaded!

Nearby

Snow Depth

Not available.

Earthquake Activity

City Distance Mag. Time & Date
No recent earthquake activity has been reported nearby.
Minimum magnitude displayed is 2.5.

Coastal Water Temperatures

Place Temperature
No Stations Reporting

Nearby Weather Stations